createdAt,value
2019-02-20T00:00:37.694Z,0
2019-02-20T00:01:37.417Z,0
2019-02-20T00:02:37.647Z,0
2019-02-20T00:03:37.122Z,0
2019-02-20T00:04:37.079Z,0
2019-02-20T00:05:37.329Z,0
2019-02-20T00:06:37.308Z,0
2019-02-20T00:07:37.402Z,0
2019-02-20T00:08:37.523Z,0
2019-02-20T00:09:37.243Z,0
2019-02-20T00:10:37.234Z,0
2019-02-20T00:11:36.983Z,0
2019-02-20T00:12:37.190Z,0
2019-02-20T00:13:36.933Z,0
2019-02-20T00:14:37.416Z,0
2019-02-20T00:15:37.389Z,0
2019-02-20T00:16:37.114Z,0
2019-02-20T00:17:36.824Z,0
2019-02-20T00:18:37.074Z,0
2019-02-20T00:19:37.339Z,0
2019-02-20T00:20:37.034Z,0
2019-02-20T00:21:36.759Z,0
2019-02-20T00:22:45.090Z,0
2019-02-20T00:23:36.999Z,0
2019-02-20T00:24:37.213Z,0
2019-02-20T00:25:36.942Z,0
2019-02-20T00:26:37.190Z,0
2019-02-20T00:27:37.211Z,0
2019-02-20T00:28:36.960Z,0
2019-02-20T00:29:36.614Z,0
2019-02-20T00:30:36.900Z,0
2019-02-20T00:31:37.085Z,0
2019-02-20T00:32:36.794Z,0
2019-02-20T00:33:37.037Z,0
2019-02-20T00:34:36.814Z,0
2019-02-20T00:35:36.502Z,0
2019-02-20T00:36:36.725Z,0
2019-02-20T00:37:36.712Z,0
2019-02-20T00:38:37.042Z,0
2019-02-20T00:39:36.404Z,0
2019-02-20T00:40:36.642Z,0
2019-02-20T00:41:36.364Z,0
2019-02-20T00:42:36.601Z,0
2019-02-20T00:43:36.423Z,0
2019-02-20T00:44:36.308Z,0
2019-02-20T00:45:36.297Z,0
2019-02-20T00:46:36.531Z,0
2019-02-20T00:47:36.262Z,0
2019-02-20T00:48:36.688Z,0
2019-02-20T00:49:36.220Z,0
2019-02-20T00:50:36.703Z,0
2019-02-20T00:51:36.170Z,0
2019-02-20T00:52:36.154Z,0
2019-02-20T00:53:36.389Z,0
2019-02-20T00:54:35.868Z,0
2019-02-20T00:55:36.146Z,0
2019-02-20T00:56:36.595Z,0
2019-02-20T00:57:36.060Z,0
2019-02-20T00:58:36.298Z,0
2019-02-20T00:59:36.558Z,0
2019-02-20T01:00:36.518Z,0
2019-02-20T01:01:36.226Z,0
2019-02-20T01:02:36.526Z,0
2019-02-20T01:03:36.501Z,0
2019-02-20T01:04:36.421Z,0
2019-02-20T01:05:36.159Z,0
2019-02-20T01:06:36.205Z,0
2019-02-20T01:07:36.364Z,0
2019-02-20T01:08:36.164Z,0
2019-02-20T01:09:35.843Z,0
2019-02-20T01:10:36.305Z,0
2019-02-20T01:11:35.793Z,0
2019-02-20T01:12:35.759Z,0
2019-02-20T01:13:36.282Z,0
2019-02-20T01:14:35.717Z,0
2019-02-20T01:15:35.959Z,0
2019-02-20T01:16:36.214Z,0
2019-02-20T01:17:35.661Z,0
2019-02-20T01:18:35.964Z,0
2019-02-20T01:19:35.626Z,0
2019-02-20T01:20:35.605Z,0
2019-02-20T01:21:35.875Z,0
2019-02-20T01:22:35.824Z,0
2019-02-20T01:23:35.824Z,0
2019-02-20T01:24:35.861Z,0
2019-02-20T01:25:35.774Z,0
2019-02-20T01:26:35.485Z,0
2019-02-20T01:27:35.771Z,0
2019-02-20T01:28:35.187Z,0
2019-02-20T01:29:35.452Z,0
2019-02-20T01:30:35.979Z,0
2019-02-20T01:31:35.671Z,0
2019-02-20T01:32:35.403Z,0
2019-02-20T01:33:35.854Z,0
2019-02-20T01:34:35.844Z,0
2019-02-20T01:35:35.812Z,0
2019-02-20T01:36:35.551Z,0
2019-02-20T01:37:35.544Z,0
2019-02-20T01:38:35.515Z,0
2019-02-20T01:39:35.497Z,0
2019-02-20T01:40:35.205Z,0
2019-02-20T01:41:35.180Z,0
2019-02-20T01:42:35.173Z,0
2019-02-20T01:43:35.427Z,0
2019-02-20T01:44:35.383Z,0
2019-02-20T01:45:35.354Z,0
2019-02-20T01:46:35.107Z,0
2019-02-20T01:47:35.579Z,0
2019-02-20T01:48:35.315Z,0
2019-02-20T01:49:35.541Z,0
2019-02-20T01:50:35.518Z,0
2019-02-20T01:51:34.997Z,0
2019-02-20T01:52:34.962Z,0
2019-02-20T01:53:35.205Z,0
2019-02-20T01:54:35.450Z,0
2019-02-20T01:55:34.914Z,0
2019-02-20T01:56:35.410Z,0
2019-02-20T01:57:35.139Z,0
2019-02-20T01:58:35.364Z,0
2019-02-20T01:59:34.866Z,0
2019-02-20T02:00:35.063Z,0
2019-02-20T02:01:34.783Z,0
2019-02-20T02:02:34.783Z,0
2019-02-20T02:03:35.004Z,0
2019-02-20T02:04:35.016Z,0
2019-02-20T02:05:34.727Z,0
2019-02-20T02:06:34.696Z,0
2019-02-20T02:07:34.929Z,0
2019-02-20T02:08:34.907Z,0
2019-02-20T02:09:35.161Z,0
2019-02-20T02:10:34.614Z,0
2019-02-20T02:11:34.581Z,0
2019-02-20T02:12:34.578Z,0
2019-02-20T02:13:34.571Z,0
2019-02-20T02:14:35.038Z,0
2019-02-20T02:15:34.830Z,0
2019-02-20T02:16:35.010Z,0
2019-02-20T02:17:34.751Z,0
2019-02-20T02:18:34.974Z,0
2019-02-20T02:19:34.690Z,0
2019-02-20T02:20:34.948Z,0
2019-02-20T02:21:34.710Z,0
2019-02-20T02:22:34.935Z,0
2019-02-20T02:23:34.883Z,0
2019-02-20T02:24:34.591Z,0
2019-02-20T02:25:34.626Z,0
2019-02-20T02:26:34.573Z,0
2019-02-20T02:27:34.826Z,0
2019-02-20T02:28:34.541Z,0
2019-02-20T02:29:34.239Z,0
2019-02-20T02:30:34.835Z,0
2019-02-20T02:31:34.702Z,0
2019-02-20T02:32:34.436Z,0
2019-02-20T02:33:34.417Z,0
2019-02-20T02:34:34.410Z,0
2019-02-20T02:35:34.182Z,0
2019-02-20T02:36:33.838Z,0
2019-02-20T02:37:34.601Z,0
2019-02-20T02:38:34.072Z,0
2019-02-20T02:39:33.789Z,0
2019-02-20T02:40:34.312Z,0
2019-02-20T02:41:34.280Z,0
2019-02-20T02:42:34.261Z,0
2019-02-20T02:43:34.270Z,0
2019-02-20T02:44:34.275Z,0
2019-02-20T02:45:34.190Z,0
2019-02-20T02:46:33.920Z,0
2019-02-20T02:47:34.189Z,0
2019-02-20T02:48:34.375Z,0
2019-02-20T02:49:34.412Z,0
2019-02-20T02:50:34.269Z,0
2019-02-20T02:51:34.090Z,0
2019-02-20T02:52:33.800Z,0
2019-02-20T02:53:37.596Z,0
2019-02-20T02:54:34.583Z,0
2019-02-20T02:55:34.391Z,0
2019-02-20T02:56:33.961Z,0
2019-02-20T02:57:33.972Z,0
2019-02-20T02:58:34.196Z,0
2019-02-20T02:59:33.909Z,0
2019-02-20T03:00:33.949Z,0
2019-02-20T03:01:34.171Z,0
2019-02-20T03:02:33.344Z,0
2019-02-20T03:03:33.839Z,0
2019-02-20T03:04:34.074Z,0
2019-02-20T03:05:33.629Z,0
2019-02-20T03:06:34.066Z,0
2019-02-20T03:07:33.771Z,0
2019-02-20T03:08:33.733Z,0
2019-02-20T03:09:33.444Z,0
2019-02-20T03:10:33.939Z,0
2019-02-20T03:11:33.757Z,0
2019-02-20T03:12:33.920Z,0
2019-02-20T03:13:33.911Z,0
2019-02-20T03:14:33.619Z,0
2019-02-20T03:15:33.903Z,0
2019-02-20T03:16:33.919Z,0
2019-02-20T03:17:33.294Z,0
2019-02-20T03:18:33.332Z,0
2019-02-20T03:19:33.524Z,0
2019-02-20T03:20:33.750Z,0
2019-02-20T03:21:33.723Z,0
2019-02-20T03:22:33.221Z,0
2019-02-20T03:23:42.353Z,0
2019-02-20T03:24:33.473Z,0
2019-02-20T03:25:33.417Z,0
2019-02-20T03:26:33.388Z,0
2019-02-20T03:27:32.877Z,0
2019-02-20T03:28:33.356Z,0
2019-02-20T03:29:32.823Z,0
2019-02-20T03:30:33.320Z,0
2019-02-20T03:31:33.344Z,0
2019-02-20T03:32:33.282Z,0
2019-02-20T03:33:33.270Z,0
2019-02-20T03:34:33.498Z,0
2019-02-20T03:35:32.950Z,0
2019-02-20T03:36:33.435Z,0
2019-02-20T03:37:32.909Z,0
2019-02-20T03:38:37.466Z,0
2019-02-20T03:39:33.586Z,0
2019-02-20T03:40:33.359Z,0
2019-02-20T03:41:33.344Z,0
2019-02-20T03:42:33.334Z,0
2019-02-20T03:43:33.310Z,0
2019-02-20T03:44:33.314Z,0
2019-02-20T03:45:33.277Z,0
2019-02-20T03:46:32.747Z,0
2019-02-20T03:47:32.971Z,0
2019-02-20T03:48:32.989Z,0
2019-02-20T03:49:32.677Z,0
2019-02-20T03:50:33.233Z,0
2019-02-20T03:51:32.994Z,0
2019-02-20T03:52:32.610Z,0
2019-02-20T03:53:32.860Z,0
2019-02-20T03:54:33.093Z,0
2019-02-20T03:55:32.922Z,0
2019-02-20T03:56:32.859Z,0
2019-02-20T03:57:32.772Z,0
2019-02-20T03:58:33.305Z,0
2019-02-20T03:59:32.751Z,0
2019-02-20T04:00:32.965Z,0
2019-02-20T04:01:32.434Z,0
2019-02-20T04:02:32.202Z,0
2019-02-20T04:03:32.410Z,0
2019-02-20T04:04:32.925Z,0
2019-02-20T04:05:32.679Z,0
2019-02-20T04:06:32.589Z,0
2019-02-20T04:07:32.932Z,0
2019-02-20T04:08:32.837Z,0
2019-02-20T04:09:32.809Z,0
2019-02-20T04:10:32.264Z,0
2019-02-20T04:11:32.543Z,0
2019-02-20T04:12:32.233Z,0
2019-02-20T04:13:32.470Z,0
2019-02-20T04:14:32.682Z,0
2019-02-20T04:15:32.202Z,0
2019-02-20T04:16:32.658Z,0
2019-02-20T04:17:32.677Z,0
2019-02-20T04:18:32.642Z,0
2019-02-20T04:19:31.828Z,0
2019-02-20T04:20:32.318Z,0
2019-02-20T04:21:32.576Z,0
2019-02-20T04:22:32.536Z,0
2019-02-20T04:23:32.581Z,0
2019-02-20T04:24:32.257Z,0
2019-02-20T04:25:31.998Z,0
2019-02-20T04:26:32.217Z,0
2019-02-20T04:27:32.196Z,0
2019-02-20T04:28:32.426Z,0
2019-02-20T04:29:31.950Z,0
2019-02-20T04:30:31.616Z,0
2019-02-20T04:31:32.129Z,0
2019-02-20T04:32:32.088Z,0
2019-02-20T04:33:31.813Z,0
2019-02-20T04:34:32.062Z,0
2019-02-20T04:35:31.767Z,0
2019-02-20T04:36:32.038Z,0
2019-02-20T04:37:31.994Z,0
2019-02-20T04:38:31.994Z,0
2019-02-20T04:39:32.212Z,0
2019-02-20T04:40:31.937Z,0
2019-02-20T04:41:31.935Z,0
2019-02-20T04:42:32.145Z,0
2019-02-20T04:43:31.919Z,0
2019-02-20T04:44:32.130Z,0
2019-02-20T04:45:31.579Z,0
2019-02-20T04:46:32.066Z,0
2019-02-20T04:47:32.054Z,0
2019-02-20T04:48:31.777Z,0
2019-02-20T04:49:31.764Z,0
2019-02-20T04:50:32.014Z,0
2019-02-20T04:51:31.978Z,0
2019-02-20T04:52:31.708Z,0
2019-02-20T04:53:31.929Z,0
2019-02-20T04:54:31.682Z,0
2019-02-20T04:55:31.636Z,0
2019-02-20T04:56:31.895Z,0
2019-02-20T04:57:31.618Z,0
2019-02-20T04:58:31.616Z,0
2019-02-20T04:59:31.561Z,0
2019-02-20T05:00:31.533Z,0
2019-02-20T05:01:31.279Z,0
2019-02-20T05:02:30.991Z,0
2019-02-20T05:03:31.490Z,0
2019-02-20T05:04:31.726Z,0
2019-02-20T05:05:31.465Z,0
2019-02-20T05:06:31.440Z,0
2019-02-20T05:07:30.893Z,0
2019-02-20T05:08:31.386Z,0
2019-02-20T05:09:31.372Z,0
2019-02-20T05:10:31.348Z,0
2019-02-20T05:11:30.845Z,0
2019-02-20T05:12:31.331Z,0
2019-02-20T05:13:31.564Z,0
2019-02-20T05:14:31.528Z,0
2019-02-20T05:15:31.266Z,0
2019-02-20T05:16:32.548Z,0
2019-02-20T05:17:31.200Z,0
2019-02-20T05:18:31.621Z,0
2019-02-20T05:19:31.191Z,0
2019-02-20T05:20:31.439Z,0
2019-02-20T05:21:31.141Z,0
2019-02-20T05:22:31.116Z,0
2019-02-20T05:23:31.419Z,0
2019-02-20T05:24:32.299Z,0
2019-02-20T05:25:31.179Z,0
2019-02-20T05:26:31.029Z,0
2019-02-20T05:27:31.178Z,0
2019-02-20T05:28:30.770Z,0
2019-02-20T05:29:30.967Z,0
2019-02-20T05:30:31.225Z,0
2019-02-20T05:31:30.687Z,0
2019-02-20T05:32:31.169Z,0
2019-02-20T05:33:30.638Z,0
2019-02-20T05:34:31.287Z,0
2019-02-20T05:35:30.648Z,0
2019-02-20T05:36:30.836Z,0
2019-02-20T05:37:31.135Z,0
2019-02-20T05:38:30.794Z,0
2019-02-20T05:39:30.922Z,0
2019-02-20T05:40:31.024Z,0
2019-02-20T05:41:30.590Z,0
2019-02-20T05:42:30.471Z,0
2019-02-20T05:43:30.956Z,0
2019-02-20T05:44:30.476Z,0
2019-02-20T05:45:30.980Z,0
2019-02-20T05:46:30.664Z,0
2019-02-20T05:47:30.369Z,0
2019-02-20T05:48:30.871Z,0
2019-02-20T05:49:30.327Z,0
2019-02-20T05:50:30.597Z,0
2019-02-20T05:51:30.566Z,0
2019-02-20T05:52:30.844Z,0
2019-02-20T05:53:30.787Z,0
2019-02-20T05:54:39.370Z,0
2019-02-20T05:55:30.724Z,0
2019-02-20T05:56:30.458Z,0
2019-02-20T05:57:30.202Z,0
2019-02-20T05:58:30.186Z,0
2019-02-20T05:59:30.149Z,0
2019-02-20T06:00:30.123Z,0
2019-02-20T06:01:30.402Z,0
2019-02-20T06:02:30.659Z,0
2019-02-20T06:03:30.358Z,0
2019-02-20T06:04:30.655Z,0
2019-02-20T06:05:30.547Z,0
2019-02-20T06:06:30.296Z,0
2019-02-20T06:07:30.277Z,0
2019-02-20T06:08:30.222Z,4
2019-02-20T06:09:31.775Z,4
2019-02-20T06:10:30.247Z,4
2019-02-20T06:11:30.423Z,4
2019-02-20T06:12:30.383Z,4
2019-02-20T06:13:29.876Z,8
2019-02-20T06:14:29.847Z,4
2019-02-20T06:15:30.112Z,8
2019-02-20T06:16:30.058Z,8
2019-02-20T06:17:29.528Z,8
2019-02-20T06:18:30.292Z,12
2019-02-20T06:19:29.992Z,16
2019-02-20T06:20:30.001Z,20
2019-02-20T06:21:29.708Z,20
2019-02-20T06:22:29.936Z,24
2019-02-20T06:23:30.016Z,28
2019-02-20T06:24:30.153Z,32
2019-02-20T06:25:30.212Z,36
2019-02-20T06:26:29.923Z,40
2019-02-20T06:27:30.145Z,44
2019-02-20T06:28:29.571Z,52
2019-02-20T06:29:29.299Z,56
2019-02-20T06:30:29.772Z,64
2019-02-20T06:31:30.019Z,72
2019-02-20T06:32:31.172Z,80
2019-02-20T06:33:29.976Z,88
2019-02-20T06:34:29.703Z,96
2019-02-20T06:35:29.173Z,108
2019-02-20T06:36:29.696Z,116
2019-02-20T06:37:29.667Z,128
2019-02-20T06:38:29.636Z,140
2019-02-20T06:39:29.876Z,156
2019-02-20T06:40:29.572Z,168
2019-02-20T06:41:38.502Z,184
2019-02-20T06:42:29.535Z,200
2019-02-20T06:43:29.266Z,216
2019-02-20T06:44:29.502Z,232
2019-02-20T06:45:29.001Z,248
2019-02-20T06:46:29.471Z,268
2019-02-20T06:47:29.448Z,292
2019-02-20T06:48:29.669Z,312
2019-02-20T06:49:29.137Z,332
2019-02-20T06:50:29.405Z,356
2019-02-20T06:51:29.100Z,376
2019-02-20T06:52:29.376Z,396
2019-02-20T06:53:29.358Z,416
2019-02-20T06:54:29.292Z,440
2019-02-20T06:55:29.295Z,460
2019-02-20T06:56:29.516Z,480
2019-02-20T06:57:29.251Z,500
2019-02-20T06:58:29.218Z,516
2019-02-20T06:59:29.459Z,528
2019-02-20T07:00:28.950Z,544
2019-02-20T07:01:29.234Z,560
2019-02-20T07:02:29.137Z,576
2019-02-20T07:03:28.865Z,604
2019-02-20T07:04:29.123Z,636
2019-02-20T07:05:28.809Z,660
2019-02-20T07:06:29.064Z,680
2019-02-20T07:07:29.036Z,724
2019-02-20T07:08:28.753Z,764
2019-02-20T07:09:28.995Z,824
2019-02-20T07:10:28.739Z,908
2019-02-20T07:11:28.695Z,996
2019-02-20T07:12:29.186Z,1080
2019-02-20T07:13:28.942Z,1132
2019-02-20T07:14:28.393Z,1168
2019-02-20T07:15:28.869Z,1192
2019-02-20T07:16:28.348Z,1212
2019-02-20T07:17:28.585Z,1244
2019-02-20T07:18:28.819Z,1252
2019-02-20T07:19:28.843Z,1308
2019-02-20T07:20:28.889Z,1372
2019-02-20T07:21:28.499Z,1400
2019-02-20T07:22:28.522Z,1412
2019-02-20T07:23:28.838Z,1460
2019-02-20T07:24:28.974Z,1512
2019-02-20T07:25:28.950Z,1564
2019-02-20T07:26:28.655Z,1624
2019-02-20T07:27:28.734Z,1640
2019-02-20T07:28:28.623Z,1648
2019-02-20T07:29:28.111Z,1648
2019-02-20T07:30:28.322Z,1632
2019-02-20T07:31:28.311Z,1616
2019-02-20T07:32:28.797Z,1616
2019-02-20T07:33:28.555Z,1624
2019-02-20T07:34:28.266Z,1648
2019-02-20T07:35:28.553Z,1676
2019-02-20T07:36:28.488Z,1676
2019-02-20T07:37:28.474Z,1684
2019-02-20T07:38:28.702Z,1688
2019-02-20T07:39:28.144Z,1640
2019-02-20T07:40:28.650Z,1552
2019-02-20T07:41:28.375Z,1484
2019-02-20T07:42:28.602Z,1452
2019-02-20T07:43:28.316Z,1496
2019-02-20T07:44:28.332Z,1548
2019-02-20T07:45:28.566Z,1600
2019-02-20T07:46:28.010Z,1604
2019-02-20T07:47:28.011Z,1640
2019-02-20T07:48:28.521Z,1828
2019-02-20T07:49:27.984Z,2044
2019-02-20T07:50:27.728Z,2212
2019-02-20T07:51:28.168Z,2316
2019-02-20T07:52:27.885Z,2388
2019-02-20T07:53:28.431Z,2476
2019-02-20T07:54:27.874Z,2604
2019-02-20T07:55:27.621Z,2672
2019-02-20T07:56:28.768Z,2656
2019-02-20T07:57:28.311Z,2636
2019-02-20T07:58:27.776Z,2680
2019-02-20T07:59:27.758Z,2740
2019-02-20T08:00:28.091Z,2796
2019-02-20T08:01:28.232Z,2924
2019-02-20T08:02:27.956Z,3000
2019-02-20T08:03:29.579Z,3024
2019-02-20T08:04:27.948Z,3048
2019-02-20T08:05:27.736Z,3160
2019-02-20T08:06:28.144Z,3296
2019-02-20T08:07:27.621Z,3596
2019-02-20T08:08:27.858Z,4056
2019-02-20T08:09:27.817Z,4436
2019-02-20T08:10:27.821Z,4496
2019-02-20T08:11:27.323Z,4584
2019-02-20T08:12:27.255Z,4864
2019-02-20T08:13:27.767Z,5156
2019-02-20T08:14:28.004Z,5556
2019-02-20T08:15:27.967Z,6116
2019-02-20T08:16:27.690Z,5936
2019-02-20T08:17:27.672Z,5356
2019-02-20T08:18:27.926Z,4768
2019-02-20T08:19:28.473Z,4816
2019-02-20T08:20:27.889Z,5216
2019-02-20T08:21:27.343Z,5724
2019-02-20T08:22:27.591Z,6372
2019-02-20T08:23:27.309Z,6872
2019-02-20T08:24:27.536Z,7160
2019-02-20T08:25:29.913Z,7272
2019-02-20T08:26:27.505Z,6900
2019-02-20T08:27:27.230Z,6756
2019-02-20T08:28:27.228Z,6948
2019-02-20T08:29:26.950Z,7280
2019-02-20T08:30:27.175Z,7536
2019-02-20T08:31:27.419Z,7376
2019-02-20T08:32:27.156Z,6760
2019-02-20T08:33:27.394Z,6444
2019-02-20T08:34:27.378Z,6320
2019-02-20T08:35:27.343Z,6408
2019-02-20T08:36:27.588Z,6020
2019-02-20T08:37:27.303Z,5884
2019-02-20T08:38:27.072Z,5768
2019-02-20T08:39:27.285Z,5988
2019-02-20T08:40:27.537Z,6232
2019-02-20T08:41:27.246Z,6512
2019-02-20T08:42:27.221Z,6716
2019-02-20T08:43:27.203Z,6672
2019-02-20T08:44:26.930Z,6688
2019-02-20T08:45:27.418Z,6884
2019-02-20T08:46:27.186Z,7184
2019-02-20T08:47:27.373Z,7376
2019-02-20T08:48:26.871Z,7356
2019-02-20T08:49:27.355Z,7140
2019-02-20T08:50:27.077Z,6760
2019-02-20T08:51:27.085Z,6380
2019-02-20T08:52:26.798Z,6128
2019-02-20T08:53:26.767Z,5976
2019-02-20T08:54:27.008Z,5980
2019-02-20T08:55:36.255Z,5996
2019-02-20T08:56:27.236Z,5868
2019-02-20T08:57:27.203Z,5612
2019-02-20T08:58:26.679Z,5436
2019-02-20T08:59:27.170Z,5392
2019-02-20T09:00:28.057Z,5416
2019-02-20T09:01:27.151Z,5380
2019-02-20T09:02:26.613Z,5284
2019-02-20T09:03:26.862Z,5308
2019-02-20T09:04:26.586Z,5608
2019-02-20T09:05:27.098Z,6048
2019-02-20T09:06:26.812Z,6384
2019-02-20T09:07:27.049Z,6556
2019-02-20T09:08:27.023Z,6572
2019-02-20T09:09:26.238Z,6476
2019-02-20T09:10:26.728Z,6456
2019-02-20T09:11:26.758Z,6656
2019-02-20T09:12:26.708Z,7120
2019-02-20T09:13:26.942Z,7660
2019-02-20T09:14:26.461Z,7908
2019-02-20T09:15:26.683Z,7812
2019-02-20T09:16:26.866Z,7568
2019-02-20T09:17:26.114Z,7532
2019-02-20T09:18:26.331Z,7616
2019-02-20T09:19:26.066Z,7884
2019-02-20T09:20:26.322Z,8304
2019-02-20T09:21:26.654Z,8688
2019-02-20T09:22:26.530Z,8908
2019-02-20T09:23:26.263Z,8912
2019-02-20T09:24:26.795Z,8560
2019-02-20T09:25:27.492Z,8572
2019-02-20T09:26:26.452Z,8836
2019-02-20T09:27:26.696Z,9136
2019-02-20T09:28:26.417Z,9496
2019-02-20T09:29:26.400Z,9540
2019-02-20T09:30:35.534Z,9260
2019-02-20T09:31:26.359Z,9436
2019-02-20T09:32:25.841Z,9728
2019-02-20T09:33:26.583Z,10040
2019-02-20T09:34:26.578Z,9892
2019-02-20T09:35:26.595Z,9976
2019-02-20T09:36:26.591Z,10264
2019-02-20T09:37:26.266Z,10480
2019-02-20T09:38:26.249Z,9992
2019-02-20T09:39:26.234Z,9744
2019-02-20T09:40:25.918Z,9644
2019-02-20T09:41:25.934Z,9872
2019-02-20T09:42:26.189Z,10344
2019-02-20T09:43:25.649Z,10868
2019-02-20T09:44:26.147Z,10496
2019-02-20T09:45:26.376Z,10004
2019-02-20T09:46:25.872Z,10052
2019-02-20T09:47:26.461Z,10252
2019-02-20T09:48:26.077Z,10692
2019-02-20T09:49:26.334Z,10832
2019-02-20T09:50:26.066Z,10640
2019-02-20T09:51:25.804Z,11908
2019-02-20T09:52:26.033Z,11092
2019-02-20T09:53:26.016Z,11172
2019-02-20T09:54:26.251Z,10944
2019-02-20T09:55:25.716Z,10708
2019-02-20T09:56:25.992Z,10472
2019-02-20T09:57:25.950Z,10488
2019-02-20T09:58:25.930Z,10280
2019-02-20T09:59:25.933Z,9976
2019-02-20T10:00:25.958Z,9648
2019-02-20T10:01:26.142Z,9496
2019-02-20T10:02:26.121Z,9372
2019-02-20T10:03:25.882Z,9328
2019-02-20T10:04:25.569Z,9312
2019-02-20T10:05:26.142Z,9356
2019-02-20T10:06:25.798Z,9812
2019-02-20T10:07:26.054Z,10228
2019-02-20T10:08:25.771Z,10772
2019-02-20T10:09:25.750Z,11356
2019-02-20T10:10:25.754Z,13076
2019-02-20T10:11:26.017Z,13796
2019-02-20T10:12:25.456Z,13620
2019-02-20T10:13:25.730Z,13036
2019-02-20T10:14:25.413Z,12796
2019-02-20T10:15:25.654Z,12140
2019-02-20T10:16:25.646Z,12832
2019-02-20T10:17:25.622Z,14216
2019-02-20T10:18:25.364Z,15236
2019-02-20T10:19:25.657Z,16608
2019-02-20T10:20:25.609Z,17472
2019-02-20T10:21:25.571Z,18496
2019-02-20T10:22:25.551Z,17856
2019-02-20T10:23:25.301Z,16800
2019-02-20T10:24:25.261Z,15260
2019-02-20T10:25:25.000Z,15456
2019-02-20T10:26:25.227Z,12804
2019-02-20T10:27:25.538Z,14720
2019-02-20T10:28:25.489Z,12576
2019-02-20T10:29:25.751Z,11372
2019-02-20T10:30:25.687Z,11072
2019-02-20T10:31:25.670Z,10924
2019-02-20T10:32:25.422Z,10968
2019-02-20T10:33:25.135Z,11096
2019-02-20T10:34:25.399Z,11480
2019-02-20T10:35:25.125Z,11984
2019-02-20T10:36:25.091Z,11824
2019-02-20T10:37:25.348Z,11724
2019-02-20T10:38:25.067Z,11728
2019-02-20T10:39:25.330Z,11596
2019-02-20T10:40:25.285Z,11540
2019-02-20T10:41:25.564Z,11188
2019-02-20T10:42:25.289Z,10736
2019-02-20T10:43:25.547Z,10468
2019-02-20T10:44:25.494Z,10480
2019-02-20T10:45:24.951Z,10760
2019-02-20T10:46:25.449Z,11388
2019-02-20T10:47:24.681Z,12072
2019-02-20T10:48:24.960Z,12696
2019-02-20T10:49:26.260Z,12876
2019-02-20T10:50:25.393Z,12940
2019-02-20T10:51:25.152Z,12888
2019-02-20T10:52:25.171Z,12840
2019-02-20T10:53:24.833Z,12944
2019-02-20T10:54:25.078Z,13268
2019-02-20T10:55:25.078Z,13620
2019-02-20T10:56:25.068Z,13988
2019-02-20T10:57:25.049Z,13920
2019-02-20T10:58:24.811Z,13524
2019-02-20T10:59:25.019Z,13488
2019-02-20T11:00:31.109Z,13592
2019-02-20T11:01:24.724Z,13572
2019-02-20T11:02:24.721Z,13364
2019-02-20T11:03:24.745Z,13372
2019-02-20T11:04:24.693Z,12936
2019-02-20T11:05:24.656Z,12784
2019-02-20T11:06:24.652Z,12760
2019-02-20T11:07:25.144Z,12628
2019-02-20T11:08:24.668Z,12496
2019-02-20T11:09:24.621Z,12220
2019-02-20T11:10:26.294Z,12160
2019-02-20T11:11:24.578Z,12476
2019-02-20T11:12:24.831Z,13068
2019-02-20T11:13:24.852Z,13532
2019-02-20T11:14:24.544Z,14040
2019-02-20T11:15:25.058Z,14472
2019-02-20T11:16:25.019Z,14832
2019-02-20T11:17:24.745Z,14856
2019-02-20T11:18:24.728Z,14928
2019-02-20T11:19:24.975Z,14836
2019-02-20T11:20:24.956Z,14608
2019-02-20T11:21:24.438Z,14284
2019-02-20T11:22:25.255Z,14100
2019-02-20T11:23:24.773Z,13624
2019-02-20T11:24:24.928Z,13252
2019-02-20T11:25:24.385Z,13052
2019-02-20T11:26:25.688Z,12820
2019-02-20T11:27:26.402Z,12404
2019-02-20T11:28:32.028Z,12304
2019-02-20T11:29:24.339Z,12608
2019-02-20T11:30:24.566Z,14088
2019-02-20T11:31:24.566Z,14876
2019-02-20T11:32:24.544Z,15316
2019-02-20T11:33:24.576Z,15356
2019-02-20T11:34:24.702Z,15228
2019-02-20T11:35:24.487Z,16384
2019-02-20T11:36:24.016Z,13872
2019-02-20T11:37:24.478Z,12804
2019-02-20T11:38:24.474Z,13156
2019-02-20T11:39:24.439Z,16256
2019-02-20T11:40:24.640Z,15248
2019-02-20T11:41:24.401Z,17504
2019-02-20T11:42:24.407Z,17024
2019-02-20T11:43:25.936Z,14700
2019-02-20T11:44:28.172Z,22112
2019-02-20T11:45:24.357Z,24064
2019-02-20T11:46:24.085Z,23680
2019-02-20T11:47:24.625Z,14868
2019-02-20T11:48:24.558Z,19904
2019-02-20T11:49:24.340Z,19296
2019-02-20T11:50:24.283Z,18208
2019-02-20T11:51:24.260Z,17952
2019-02-20T11:52:25.704Z,18656
2019-02-20T11:53:24.493Z,19104
2019-02-20T11:54:24.221Z,19872
2019-02-20T11:55:23.957Z,23328
2019-02-20T11:56:31.356Z,27008
2019-02-20T11:57:24.231Z,22720
2019-02-20T11:58:24.171Z,23520
2019-02-20T11:59:24.005Z,22048
2019-02-20T12:00:24.154Z,24128
2019-02-20T12:01:23.937Z,30176
2019-02-20T12:02:25.339Z,26208
2019-02-20T12:03:24.138Z,21216
2019-02-20T12:04:24.354Z,18208
2019-02-20T12:05:24.099Z,14240
2019-02-20T12:06:24.071Z,12352
2019-02-20T12:07:24.322Z,11912
2019-02-20T12:08:24.307Z,10720
2019-02-20T12:09:24.037Z,10244
2019-02-20T12:10:24.437Z,9720
2019-02-20T12:11:24.045Z,9016
2019-02-20T12:12:24.284Z,8612
2019-02-20T12:13:23.992Z,7968
2019-02-20T12:14:26.922Z,7660
2019-02-20T12:15:24.249Z,7244
2019-02-20T12:16:23.951Z,6876
2019-02-20T12:17:23.936Z,6692
2019-02-20T12:18:24.871Z,6768
2019-02-20T12:19:26.009Z,7276
2019-02-20T12:20:23.419Z,7604
2019-02-20T12:21:23.885Z,8428
2019-02-20T12:22:23.874Z,9580
2019-02-20T12:23:23.893Z,10712
2019-02-20T12:24:23.861Z,11172
2019-02-20T12:25:23.590Z,13104
2019-02-20T12:26:24.137Z,14732
2019-02-20T12:27:23.292Z,15584
2019-02-20T12:28:24.041Z,12692
2019-02-20T12:29:23.835Z,14532
2019-02-20T12:30:23.763Z,9648
2019-02-20T12:31:24.007Z,7576
2019-02-20T12:32:23.737Z,6932
2019-02-20T12:33:23.479Z,10020
2019-02-20T12:34:23.708Z,10728
2019-02-20T12:35:23.719Z,12636
2019-02-20T12:36:23.964Z,15724
2019-02-20T12:37:25.045Z,19232
2019-02-20T12:38:23.961Z,21184
2019-02-20T12:39:23.379Z,18336
2019-02-20T12:40:23.884Z,19072
2019-02-20T12:41:23.353Z,18304
2019-02-20T12:42:23.626Z,28160
2019-02-20T12:43:23.598Z,29856
2019-02-20T12:44:23.836Z,26880
2019-02-20T12:45:23.050Z,26112
2019-02-20T12:46:23.296Z,26048
2019-02-20T12:47:23.535Z,31168
2019-02-20T12:48:23.806Z,28512
2019-02-20T12:49:23.517Z,31840
2019-02-20T12:50:24.754Z,32544
2019-02-20T12:51:23.737Z,35584
2019-02-20T12:52:23.224Z,29888
2019-02-20T12:53:22.965Z,29312
2019-02-20T12:54:25.135Z,28320
2019-02-20T12:55:22.936Z,26624
2019-02-20T12:56:23.209Z,23680
2019-02-20T12:57:22.922Z,21664
2019-02-20T12:58:23.418Z,18464
2019-02-20T12:59:23.153Z,17056
2019-02-20T13:00:23.802Z,17056
2019-02-20T13:01:23.385Z,15424
2019-02-20T13:02:23.367Z,15212
2019-02-20T13:03:23.367Z,14432
2019-02-20T13:04:24.612Z,14912
2019-02-20T13:05:23.082Z,17088
2019-02-20T13:06:23.607Z,18144
2019-02-20T13:07:24.709Z,18784
2019-02-20T13:08:25.306Z,17280
2019-02-20T13:09:23.070Z,16000
2019-02-20T13:10:23.039Z,15036
2019-02-20T13:11:23.289Z,14324
2019-02-20T13:12:23.276Z,13788
2019-02-20T13:13:22.747Z,13136
2019-02-20T13:14:23.254Z,12548
2019-02-20T13:15:23.328Z,13472
2019-02-20T13:16:22.977Z,15872
2019-02-20T13:17:23.493Z,15936
2019-02-20T13:18:23.333Z,15296
2019-02-20T13:19:23.203Z,15544
2019-02-20T13:20:23.821Z,15676
2019-02-20T13:21:23.198Z,15360
2019-02-20T13:22:23.826Z,14248
2019-02-20T13:23:25.007Z,13224
2019-02-20T13:24:22.882Z,13656
2019-02-20T13:25:23.571Z,16544
2019-02-20T13:26:23.383Z,18624
2019-02-20T13:27:29.694Z,19168
2019-02-20T13:28:22.841Z,19104
2019-02-20T13:29:22.824Z,17344
2019-02-20T13:30:22.866Z,15872
2019-02-20T13:31:23.214Z,15840
2019-02-20T13:32:22.922Z,15808
2019-02-20T13:33:22.850Z,16960
2019-02-20T13:34:22.763Z,16736
2019-02-20T13:35:23.548Z,17888
2019-02-20T13:36:23.009Z,17888
2019-02-20T13:37:22.747Z,18400
2019-02-20T13:38:23.403Z,17760
2019-02-20T13:39:23.267Z,17408
2019-02-20T13:40:23.213Z,18336
2019-02-20T13:41:22.469Z,20992
2019-02-20T13:42:22.984Z,19968
2019-02-20T13:43:23.862Z,18048
2019-02-20T13:44:22.929Z,17280
2019-02-20T13:45:23.225Z,21152
2019-02-20T13:46:22.916Z,20704
2019-02-20T13:47:22.944Z,18944
2019-02-20T13:48:23.187Z,15148
2019-02-20T13:49:22.685Z,11276
2019-02-20T13:50:23.336Z,12636
2019-02-20T13:51:25.293Z,18016